sensor_id;sensor_type;location;lat;lon;timestamp;P1;durP1;ratioP1;P2;durP2;ratioP2
1475;SDS011;730;48.870;12.542;2024-02-28T00:01:52;24.10;;;19.43;;
1475;SDS011;730;48.870;12.542;2024-02-28T00:04:18;26.80;;;19.90;;
1475;SDS011;730;48.870;12.542;2024-02-28T00:06:45;28.40;;;19.43;;
1475;SDS011;730;48.870;12.542;2024-02-28T00:09:13;25.43;;;19.97;;
1475;SDS011;730;48.870;12.542;2024-02-28T00:11:43;24.93;;;20.37;;
1475;SDS011;730;48.870;12.542;2024-02-28T00:14:12;27.10;;;18.13;;
1475;SDS011;730;48.870;12.542;2024-02-28T00:16:42;22.53;;;18.23;;
1475;SDS011;730;48.870;12.542;2024-02-28T00:19:09;22.93;;;18.50;;
1475;SDS011;730;48.870;12.542;2024-02-28T00:21:49;23.03;;;19.40;;
1475;SDS011;730;48.870;12.542;2024-02-28T00:24:15;22.57;;;19.00;;
1475;SDS011;730;48.870;12.542;2024-02-28T00:26:41;24.00;;;19.50;;
1475;SDS011;730;48.870;12.542;2024-02-28T00:29:08;25.87;;;18.90;;
1475;SDS011;730;48.870;12.542;2024-02-28T00:31:35;29.70;;;20.70;;
1475;SDS011;730;48.870;12.542;2024-02-28T00:34:01;24.97;;;20.20;;
1475;SDS011;730;48.870;12.542;2024-02-28T00:36:27;25.00;;;19.67;;
1475;SDS011;730;48.870;12.542;2024-02-28T00:38:53;24.40;;;19.73;;
1475;SDS011;730;48.870;12.542;2024-02-28T00:41:19;26.83;;;20.23;;
1475;SDS011;730;48.870;12.542;2024-02-28T00:43:45;25.90;;;19.00;;
1475;SDS011;730;48.870;12.542;2024-02-28T00:46:11;21.33;;;18.87;;
1475;SDS011;730;48.870;12.542;2024-02-28T00:48:38;28.27;;;19.83;;
1475;SDS011;730;48.870;12.542;2024-02-28T00:51:04;25.47;;;19.90;;
1475;SDS011;730;48.870;12.542;2024-02-28T00:53:30;26.80;;;18.80;;
1475;SDS011;730;48.870;12.542;2024-02-28T00:55:57;24.10;;;18.50;;
1475;SDS011;730;48.870;12.542;2024-02-28T00:58:23;21.80;;;18.47;;
1475;SDS011;730;48.870;12.542;2024-02-28T01:00:49;22.90;;;19.27;;
1475;SDS011;730;48.870;12.542;2024-02-28T01:03:15;24.70;;;19.07;;
1475;SDS011;730;48.870;12.542;2024-02-28T01:05:43;23.37;;;18.27;;
1475;SDS011;730;48.870;12.542;2024-02-28T01:08:09;27.30;;;20.67;;
1475;SDS011;730;48.870;12.542;2024-02-28T01:10:35;21.27;;;17.20;;
1475;SDS011;730;48.870;12.542;2024-02-28T01:13:02;23.67;;;19.30;;
1475;SDS011;730;48.870;12.542;2024-02-28T01:15:28;26.20;;;19.90;;
1475;SDS011;730;48.870;12.542;2024-02-28T01:17:54;27.98;;;20.45;;
1475;SDS011;730;48.870;12.542;2024-02-28T01:20:20;24.43;;;20.80;;
1475;SDS011;730;48.870;12.542;2024-02-28T01:22:46;26.07;;;20.00;;
1475;SDS011;730;48.870;12.542;2024-02-28T01:25:13;23.80;;;18.77;;
1475;SDS011;730;48.870;12.542;2024-02-28T01:27:39;24.73;;;18.47;;
1475;SDS011;730;48.870;12.542;2024-02-28T01:30:05;27.83;;;19.10;;
1475;SDS011;730;48.870;12.542;2024-02-28T01:32:32;23.23;;;18.23;;
1475;SDS011;730;48.870;12.542;2024-02-28T01:34:58;26.73;;;18.83;;
1475;SDS011;730;48.870;12.542;2024-02-28T01:37:24;23.93;;;17.97;;
1475;SDS011;730;48.870;12.542;2024-02-28T01:39:50;25.92;;;21.17;;
1475;SDS011;730;48.870;12.542;2024-02-28T01:42:16;24.37;;;17.97;;
1475;SDS011;730;48.870;12.542;2024-02-28T01:44:44;22.70;;;15.87;;
1475;SDS011;730;48.870;12.542;2024-02-28T01:47:12;26.77;;;18.73;;
1475;SDS011;730;48.870;12.542;2024-02-28T01:49:41;24.83;;;18.27;;
1475;SDS011;730;48.870;12.542;2024-02-28T01:52:08;23.20;;;15.82;;
1475;SDS011;730;48.870;12.542;2024-02-28T01:54:35;26.65;;;19.63;;
1475;SDS011;730;48.870;12.542;2024-02-28T01:57:01;26.10;;;18.38;;
1475;SDS011;730;48.870;12.542;2024-02-28T01:59:28;22.10;;;17.30;;
1475;SDS011;730;48.870;12.542;2024-02-28T02:01:56;27.80;;;19.42;;
1475;SDS011;730;48.870;12.542;2024-02-28T02:04:22;21.90;;;18.55;;
1475;SDS011;730;48.870;12.542;2024-02-28T02:06:48;25.63;;;18.57;;
1475;SDS011;730;48.870;12.542;2024-02-28T02:09:15;28.88;;;19.63;;
1475;SDS011;730;48.870;12.542;2024-02-28T02:11:42;25.83;;;19.38;;
1475;SDS011;730;48.870;12.542;2024-02-28T02:14:08;25.08;;;19.05;;
1475;SDS011;730;48.870;12.542;2024-02-28T02:16:34;28.48;;;18.55;;
1475;SDS011;730;48.870;12.542;2024-02-28T02:19:00;30.98;;;21.63;;
1475;SDS011;730;48.870;12.542;2024-02-28T02:21:29;28.35;;;19.50;;
1475;SDS011;730;48.870;12.542;2024-02-28T02:23:56;26.35;;;17.25;;
1475;SDS011;730;48.870;12.542;2024-02-28T02:26:22;26.95;;;18.95;;
1475;SDS011;730;48.870;12.542;2024-02-28T02:28:48;30.17;;;20.73;;
1475;SDS011;730;48.870;12.542;2024-02-28T02:31:14;30.58;;;20.67;;
1475;SDS011;730;48.870;12.542;2024-02-28T02:33:40;29.40;;;19.02;;
1475;SDS011;730;48.870;12.542;2024-02-28T02:36:06;26.73;;;18.88;;
1475;SDS011;730;48.870;12.542;2024-02-28T02:38:33;30.70;;;21.50;;
1475;SDS011;730;48.870;12.542;2024-02-28T02:40:59;24.17;;;19.75;;
1475;SDS011;730;48.870;12.542;2024-02-28T02:43:25;28.65;;;20.52;;
1475;SDS011;730;48.870;12.542;2024-02-28T02:45:51;26.92;;;19.10;;
1475;SDS011;730;48.870;12.542;2024-02-28T02:48:17;30.05;;;20.48;;
1475;SDS011;730;48.870;12.542;2024-02-28T02:50:43;25.60;;;19.42;;
1475;SDS011;730;48.870;12.542;2024-02-28T02:53:10;23.25;;;18.77;;
1475;SDS011;730;48.870;12.542;2024-02-28T02:55:36;23.27;;;18.38;;
1475;SDS011;730;48.870;12.542;2024-02-28T02:58:02;26.35;;;18.27;;
1475;SDS011;730;48.870;12.542;2024-02-28T03:00:28;26.90;;;19.30;;
1475;SDS011;730;48.870;12.542;2024-02-28T03:02:54;26.88;;;19.73;;
1475;SDS011;730;48.870;12.542;2024-02-28T03:05:20;24.65;;;17.83;;
1475;SDS011;730;48.870;12.542;2024-02-28T03:07:46;25.88;;;17.92;;
1475;SDS011;730;48.870;12.542;2024-02-28T03:10:12;24.05;;;16.50;;
1475;SDS011;730;48.870;12.542;2024-02-28T03:12:38;21.33;;;18.00;;
1475;SDS011;730;48.870;12.542;2024-02-28T03:15:05;20.10;;;16.13;;
1475;SDS011;730;48.870;12.542;2024-02-28T03:17:31;22.75;;;17.17;;
1475;SDS011;730;48.870;12.542;2024-02-28T03:19:57;24.52;;;17.95;;
1475;SDS011;730;48.870;12.542;2024-02-28T03:22:23;22.33;;;17.08;;
1475;SDS011;730;48.870;12.542;2024-02-28T03:24:49;24.33;;;18.13;;
1475;SDS011;730;48.870;12.542;2024-02-28T03:27:15;20.88;;;15.38;;
1475;SDS011;730;48.870;12.542;2024-02-28T03:29:41;23.88;;;16.25;;
1475;SDS011;730;48.870;12.542;2024-02-28T03:32:07;23.02;;;16.35;;
1475;SDS011;730;48.870;12.542;2024-02-28T03:34:33;20.00;;;16.70;;
1475;SDS011;730;48.870;12.542;2024-02-28T03:37:00;18.40;;;15.73;;
1475;SDS011;730;48.870;12.542;2024-02-28T03:39:26;22.38;;;17.67;;
1475;SDS011;730;48.870;12.542;2024-02-28T03:41:52;22.15;;;15.40;;
1475;SDS011;730;48.870;12.542;2024-02-28T03:44:18;23.63;;;16.80;;
1475;SDS011;730;48.870;12.542;2024-02-28T03:46:44;20.00;;;14.75;;
1475;SDS011;730;48.870;12.542;2024-02-28T03:49:10;22.00;;;16.67;;
1475;SDS011;730;48.870;12.542;2024-02-28T03:51:42;24.05;;;16.77;;
1475;SDS011;730;48.870;12.542;2024-02-28T03:54:08;25.38;;;17.70;;
1475;SDS011;730;48.870;12.542;2024-02-28T03:56:34;22.75;;;17.75;;
1475;SDS011;730;48.870;12.542;2024-02-28T03:59:03;24.38;;;17.08;;
1475;SDS011;730;48.870;12.542;2024-02-28T04:01:29;25.23;;;18.48;;
1475;SDS011;730;48.870;12.542;2024-02-28T04:03:55;25.70;;;18.30;;
1475;SDS011;730;48.870;12.542;2024-02-28T04:06:21;25.58;;;16.50;;
1475;SDS011;730;48.870;12.542;2024-02-28T04:08:47;25.63;;;17.88;;
1475;SDS011;730;48.870;12.542;2024-02-28T04:11:14;22.48;;;16.63;;
1475;SDS011;730;48.870;12.542;2024-02-28T04:13:40;27.20;;;18.05;;
1475;SDS011;730;48.870;12.542;2024-02-28T04:16:07;26.65;;;17.83;;
1475;SDS011;730;48.870;12.542;2024-02-28T04:18:34;20.33;;;15.85;;
1475;SDS011;730;48.870;12.542;2024-02-28T04:21:00;23.00;;;18.05;;
1475;SDS011;730;48.870;12.542;2024-02-28T04:23:26;23.88;;;16.98;;
1475;SDS011;730;48.870;12.542;2024-02-28T04:25:52;25.35;;;17.70;;
1475;SDS011;730;48.870;12.542;2024-02-28T04:28:18;26.13;;;18.30;;
1475;SDS011;730;48.870;12.542;2024-02-28T04:30:44;24.02;;;17.83;;
1475;SDS011;730;48.870;12.542;2024-02-28T04:33:10;23.00;;;17.40;;
1475;SDS011;730;48.870;12.542;2024-02-28T04:35:36;26.10;;;17.95;;
1475;SDS011;730;48.870;12.542;2024-02-28T04:38:02;27.52;;;19.25;;
1475;SDS011;730;48.870;12.542;2024-02-28T04:40:29;24.08;;;18.60;;
1475;SDS011;730;48.870;12.542;2024-02-28T04:42:55;24.70;;;18.20;;
1475;SDS011;730;48.870;12.542;2024-02-28T04:45:21;24.33;;;19.52;;
1475;SDS011;730;48.870;12.542;2024-02-28T04:47:47;23.77;;;19.52;;
1475;SDS011;730;48.870;12.542;2024-02-28T04:50:13;26.45;;;19.02;;
1475;SDS011;730;48.870;12.542;2024-02-28T04:52:39;24.23;;;18.15;;
1475;SDS011;730;48.870;12.542;2024-02-28T04:55:05;23.45;;;16.35;;
1475;SDS011;730;48.870;12.542;2024-02-28T04:57:31;25.38;;;17.73;;
1475;SDS011;730;48.870;12.542;2024-02-28T04:59:57;23.17;;;16.45;;
1475;SDS011;730;48.870;12.542;2024-02-28T05:02:24;22.27;;;16.70;;
1475;SDS011;730;48.870;12.542;2024-02-28T05:04:51;23.52;;;18.65;;
1475;SDS011;730;48.870;12.542;2024-02-28T05:07:17;29.70;;;21.35;;
1475;SDS011;730;48.870;12.542;2024-02-28T05:09:43;29.27;;;23.60;;
1475;SDS011;730;48.870;12.542;2024-02-28T05:12:09;29.75;;;19.77;;
1475;SDS011;730;48.870;12.542;2024-02-28T05:14:37;27.25;;;19.90;;
1475;SDS011;730;48.870;12.542;2024-02-28T05:17:03;25.75;;;19.20;;
1475;SDS011;730;48.870;12.542;2024-02-28T05:19:29;25.67;;;20.13;;
1475;SDS011;730;48.870;12.542;2024-02-28T05:21:56;51.13;;;36.40;;
1475;SDS011;730;48.870;12.542;2024-02-28T05:24:22;30.77;;;18.90;;
1475;SDS011;730;48.870;12.542;2024-02-28T05:26:48;24.17;;;18.50;;
1475;SDS011;730;48.870;12.542;2024-02-28T05:29:14;23.75;;;19.05;;
1475;SDS011;730;48.870;12.542;2024-02-28T05:31:40;22.23;;;16.42;;
1475;SDS011;730;48.870;12.542;2024-02-28T05:34:06;22.35;;;17.73;;
1475;SDS011;730;48.870;12.542;2024-02-28T05:36:33;26.80;;;17.55;;
1475;SDS011;730;48.870;12.542;2024-02-28T05:38:59;21.88;;;15.55;;
1475;SDS011;730;48.870;12.542;2024-02-28T05:41:27;22.70;;;16.75;;
1475;SDS011;730;48.870;12.542;2024-02-28T05:43:54;22.38;;;16.25;;
1475;SDS011;730;48.870;12.542;2024-02-28T05:46:20;23.15;;;16.67;;
1475;SDS011;730;48.870;12.542;2024-02-28T05:48:47;23.80;;;15.75;;
1475;SDS011;730;48.870;12.542;2024-02-28T05:51:13;22.63;;;17.67;;
1475;SDS011;730;48.870;12.542;2024-02-28T05:53:40;23.40;;;16.17;;
1475;SDS011;730;48.870;12.542;2024-02-28T05:56:09;22.38;;;17.73;;
1475;SDS011;730;48.870;12.542;2024-02-28T05:58:39;19.23;;;15.18;;
1475;SDS011;730;48.870;12.542;2024-02-28T06:01:09;20.40;;;16.77;;
1475;SDS011;730;48.870;12.542;2024-02-28T06:03:37;24.13;;;17.23;;
1475;SDS011;730;48.870;12.542;2024-02-28T06:06:03;24.05;;;16.90;;
1475;SDS011;730;48.870;12.542;2024-02-28T06:08:32;26.63;;;17.73;;
1475;SDS011;730;48.870;12.542;2024-02-28T06:10:59;20.50;;;15.35;;
1475;SDS011;730;48.870;12.542;2024-02-28T06:13:26;20.60;;;14.23;;
1475;SDS011;730;48.870;12.542;2024-02-28T06:15:53;22.20;;;16.48;;
1475;SDS011;730;48.870;12.542;2024-02-28T06:18:20;20.58;;;15.30;;
1475;SDS011;730;48.870;12.542;2024-02-28T06:20:48;21.08;;;16.45;;
1475;SDS011;730;48.870;12.542;2024-02-28T06:23:15;21.00;;;15.50;;
1475;SDS011;730;48.870;12.542;2024-02-28T06:25:43;22.27;;;15.67;;
1475;SDS011;730;48.870;12.542;2024-02-28T06:28:11;18.33;;;15.25;;
1475;SDS011;730;48.870;12.542;2024-02-28T06:30:37;22.63;;;16.48;;
1475;SDS011;730;48.870;12.542;2024-02-28T06:33:03;20.65;;;15.80;;
1475;SDS011;730;48.870;12.542;2024-02-28T06:35:30;22.35;;;16.02;;
1475;SDS011;730;48.870;12.542;2024-02-28T06:37:56;20.40;;;14.33;;
1475;SDS011;730;48.870;12.542;2024-02-28T06:40:22;18.40;;;13.90;;
1475;SDS011;730;48.870;12.542;2024-02-28T06:42:48;22.70;;;14.70;;
1475;SDS011;730;48.870;12.542;2024-02-28T06:45:14;26.33;;;15.10;;
1475;SDS011;730;48.870;12.542;2024-02-28T06:47:40;20.23;;;14.77;;
1475;SDS011;730;48.870;12.542;2024-02-28T06:50:07;21.53;;;14.77;;
1475;SDS011;730;48.870;12.542;2024-02-28T06:52:33;17.43;;;13.83;;
1475;SDS011;730;48.870;12.542;2024-02-28T06:55:00;17.80;;;14.00;;
1475;SDS011;730;48.870;12.542;2024-02-28T06:57:29;19.83;;;15.47;;
1475;SDS011;730;48.870;12.542;2024-02-28T06:59:55;16.50;;;13.85;;
1475;SDS011;730;48.870;12.542;2024-02-28T07:04:49;18.30;;;14.52;;
1475;SDS011;730;48.870;12.542;2024-02-28T07:07:15;17.67;;;14.53;;
1475;SDS011;730;48.870;12.542;2024-02-28T07:09:41;18.67;;;15.43;;
1475;SDS011;730;48.870;12.542;2024-02-28T07:12:07;20.60;;;16.13;;
1475;SDS011;730;48.870;12.542;2024-02-28T07:14:33;19.77;;;16.27;;
1475;SDS011;730;48.870;12.542;2024-02-28T07:16:59;21.10;;;16.23;;
1475;SDS011;730;48.870;12.542;2024-02-28T07:19:25;21.90;;;17.87;;
1475;SDS011;730;48.870;12.542;2024-02-28T07:21:51;24.90;;;17.60;;
1475;SDS011;730;48.870;12.542;2024-02-28T07:24:17;18.73;;;16.60;;
1475;SDS011;730;48.870;12.542;2024-02-28T07:26:43;22.13;;;16.57;;
1475;SDS011;730;48.870;12.542;2024-02-28T07:29:11;19.93;;;16.80;;
1475;SDS011;730;48.870;12.542;2024-02-28T07:31:37;17.73;;;15.00;;
1475;SDS011;730;48.870;12.542;2024-02-28T07:34:03;23.27;;;18.77;;
1475;SDS011;730;48.870;12.542;2024-02-28T07:36:30;18.30;;;14.80;;
1475;SDS011;730;48.870;12.542;2024-02-28T07:38:56;19.80;;;15.50;;
1475;SDS011;730;48.870;12.542;2024-02-28T07:41:22;19.43;;;14.70;;
1475;SDS011;730;48.870;12.542;2024-02-28T07:43:49;19.15;;;15.38;;
1475;SDS011;730;48.870;12.542;2024-02-28T07:46:15;18.27;;;14.20;;
1475;SDS011;730;48.870;12.542;2024-02-28T07:48:41;18.43;;;16.00;;
1475;SDS011;730;48.870;12.542;2024-02-28T07:51:08;19.50;;;17.30;;
1475;SDS011;730;48.870;12.542;2024-02-28T07:53:35;18.63;;;16.08;;
1475;SDS011;730;48.870;12.542;2024-02-28T07:56:01;19.03;;;16.20;;
1475;SDS011;730;48.870;12.542;2024-02-28T07:58:27;17.60;;;15.00;;
1475;SDS011;730;48.870;12.542;2024-02-28T08:00:53;18.30;;;15.80;;
1475;SDS011;730;48.870;12.542;2024-02-28T08:03:19;18.17;;;16.20;;
1475;SDS011;730;48.870;12.542;2024-02-28T08:05:45;19.38;;;15.48;;
1475;SDS011;730;48.870;12.542;2024-02-28T08:08:11;19.20;;;15.50;;
1475;SDS011;730;48.870;12.542;2024-02-28T08:10:37;16.83;;;13.90;;
1475;SDS011;730;48.870;12.542;2024-02-28T08:13:04;18.50;;;14.63;;
1475;SDS011;730;48.870;12.542;2024-02-28T08:15:30;20.70;;;15.73;;
1475;SDS011;730;48.870;12.542;2024-02-28T08:17:57;17.90;;;14.03;;
1475;SDS011;730;48.870;12.542;2024-02-28T08:20:24;20.00;;;16.33;;
1475;SDS011;730;48.870;12.542;2024-02-28T08:23:00;16.20;;;14.50;;
1475;SDS011;730;48.870;12.542;2024-02-28T08:25:26;20.13;;;16.67;;
1475;SDS011;730;48.870;12.542;2024-02-28T08:27:52;20.20;;;15.40;;
1475;SDS011;730;48.870;12.542;2024-02-28T08:30:18;18.20;;;14.47;;
1475;SDS011;730;48.870;12.542;2024-02-28T08:32:44;16.77;;;12.97;;
1475;SDS011;730;48.870;12.542;2024-02-28T08:35:10;18.47;;;14.20;;
1475;SDS011;730;48.870;12.542;2024-02-28T08:37:39;20.93;;;17.23;;
1475;SDS011;730;48.870;12.542;2024-02-28T08:40:06;28.17;;;23.27;;
1475;SDS011;730;48.870;12.542;2024-02-28T08:42:32;18.73;;;16.73;;
1475;SDS011;730;48.870;12.542;2024-02-28T08:44:59;16.77;;;14.40;;
1475;SDS011;730;48.870;12.542;2024-02-28T08:47:26;14.90;;;13.17;;
1475;SDS011;730;48.870;12.542;2024-02-28T08:49:52;20.23;;;15.63;;
1475;SDS011;730;48.870;12.542;2024-02-28T08:52:19;16.73;;;14.77;;
1475;SDS011;730;48.870;12.542;2024-02-28T08:54:46;19.73;;;15.90;;
1475;SDS011;730;48.870;12.542;2024-02-28T08:57:13;19.17;;;14.17;;
1475;SDS011;730;48.870;12.542;2024-02-28T08:59:39;15.57;;;13.67;;
1475;SDS011;730;48.870;12.542;2024-02-28T09:02:08;17.73;;;14.33;;
1475;SDS011;730;48.870;12.542;2024-02-28T09:04:34;14.90;;;13.40;;
1475;SDS011;730;48.870;12.542;2024-02-28T09:07:00;18.13;;;13.90;;
1475;SDS011;730;48.870;12.542;2024-02-28T09:09:26;17.00;;;15.23;;
1475;SDS011;730;48.870;12.542;2024-02-28T09:11:54;17.87;;;13.80;;
1475;SDS011;730;48.870;12.542;2024-02-28T09:14:20;18.27;;;15.63;;
1475;SDS011;730;48.870;12.542;2024-02-28T09:16:46;17.40;;;14.73;;
1475;SDS011;730;48.870;12.542;2024-02-28T09:19:13;14.67;;;12.93;;
1475;SDS011;730;48.870;12.542;2024-02-28T09:21:39;16.97;;;13.80;;
1475;SDS011;730;48.870;12.542;2024-02-28T09:24:05;18.27;;;15.10;;
1475;SDS011;730;48.870;12.542;2024-02-28T09:26:31;21.80;;;17.47;;
1475;SDS011;730;48.870;12.542;2024-02-28T09:28:57;15.80;;;14.20;;
1475;SDS011;730;48.870;12.542;2024-02-28T09:31:23;16.07;;;13.73;;
1475;SDS011;730;48.870;12.542;2024-02-28T09:33:49;16.77;;;14.70;;
1475;SDS011;730;48.870;12.542;2024-02-28T09:36:15;17.73;;;14.80;;
1475;SDS011;730;48.870;12.542;2024-02-28T09:38:41;23.13;;;17.43;;
1475;SDS011;730;48.870;12.542;2024-02-28T09:41:07;24.47;;;20.17;;
1475;SDS011;730;48.870;12.542;2024-02-28T09:43:42;15.80;;;13.40;;
1475;SDS011;730;48.870;12.542;2024-02-28T09:46:10;22.27;;;15.20;;
1475;SDS011;730;48.870;12.542;2024-02-28T09:48:38;50.73;;;36.23;;
1475;SDS011;730;48.870;12.542;2024-02-28T09:51:08;24.50;;;19.90;;
1475;SDS011;730;48.870;12.542;2024-02-28T09:53:38;30.47;;;21.93;;
1475;SDS011;730;48.870;12.542;2024-02-28T09:56:05;47.80;;;27.60;;
1475;SDS011;730;48.870;12.542;2024-02-28T09:58:32;17.07;;;14.10;;
1475;SDS011;730;48.870;12.542;2024-02-28T10:01:01;15.97;;;12.57;;
1475;SDS011;730;48.870;12.542;2024-02-28T10:03:30;15.53;;;12.40;;
1475;SDS011;730;48.870;12.542;2024-02-28T10:05:57;16.40;;;12.73;;
1475;SDS011;730;48.870;12.542;2024-02-28T10:08:24;15.10;;;12.07;;
1475;SDS011;730;48.870;12.542;2024-02-28T10:10:50;17.57;;;15.40;;
1475;SDS011;730;48.870;12.542;2024-02-28T10:13:21;14.73;;;12.10;;
1475;SDS011;730;48.870;12.542;2024-02-28T10:15:48;13.70;;;11.23;;
1475;SDS011;730;48.870;12.542;2024-02-28T10:18:14;14.30;;;11.93;;
1475;SDS011;730;48.870;12.542;2024-02-28T10:20:40;18.27;;;11.37;;
1475;SDS011;730;48.870;12.542;2024-02-28T10:23:07;15.47;;;11.87;;
1475;SDS011;730;48.870;12.542;2024-02-28T10:25:44;13.97;;;11.70;;
1475;SDS011;730;48.870;12.542;2024-02-28T10:28:11;14.07;;;11.00;;
1475;SDS011;730;48.870;12.542;2024-02-28T10:30:42;11.73;;;10.50;;
1475;SDS011;730;48.870;12.542;2024-02-28T10:35:42;13.93;;;12.17;;
1475;SDS011;730;48.870;12.542;2024-02-28T10:38:12;12.57;;;11.23;;
1475;SDS011;730;48.870;12.542;2024-02-28T10:40:40;14.83;;;11.03;;
1475;SDS011;730;48.870;12.542;2024-02-28T10:43:10;17.30;;;11.37;;
1475;SDS011;730;48.870;12.542;2024-02-28T10:45:37;14.60;;;11.57;;
1475;SDS011;730;48.870;12.542;2024-02-28T10:48:06;14.87;;;11.77;;
1475;SDS011;730;48.870;12.542;2024-02-28T10:50:32;14.00;;;11.97;;
1475;SDS011;730;48.870;12.542;2024-02-28T10:53:00;15.70;;;11.83;;
1475;SDS011;730;48.870;12.542;2024-02-28T10:55:34;14.63;;;11.13;;
1475;SDS011;730;48.870;12.542;2024-02-28T11:00:33;15.40;;;11.83;;
1475;SDS011;730;48.870;12.542;2024-02-28T11:03:01;18.33;;;14.20;;
1475;SDS011;730;48.870;12.542;2024-02-28T11:05:40;14.83;;;11.47;;
1475;SDS011;730;48.870;12.542;2024-02-28T11:08:08;17.27;;;11.97;;
1475;SDS011;730;48.870;12.542;2024-02-28T11:10:45;16.27;;;11.07;;
1475;SDS011;730;48.870;12.542;2024-02-28T11:13:22;16.50;;;11.60;;
1475;SDS011;730;48.870;12.542;2024-02-28T11:15:52;13.43;;;11.30;;
1475;SDS011;730;48.870;12.542;2024-02-28T11:18:20;10.70;;;9.60;;
1475;SDS011;730;48.870;12.542;2024-02-28T11:20:47;13.70;;;11.13;;
1475;SDS011;730;48.870;12.542;2024-02-28T11:23:14;14.63;;;11.20;;
1475;SDS011;730;48.870;12.542;2024-02-28T11:25:42;12.67;;;10.97;;
1475;SDS011;730;48.870;12.542;2024-02-28T11:28:08;10.97;;;9.53;;
1475;SDS011;730;48.870;12.542;2024-02-28T11:30:41;16.57;;;12.47;;
1475;SDS011;730;48.870;12.542;2024-02-28T11:33:07;15.43;;;12.03;;
1475;SDS011;730;48.870;12.542;2024-02-28T11:35:35;12.07;;;10.87;;
1475;SDS011;730;48.870;12.542;2024-02-28T11:38:01;16.73;;;12.80;;
1475;SDS011;730;48.870;12.542;2024-02-28T11:40:27;13.27;;;11.67;;
1475;SDS011;730;48.870;12.542;2024-02-28T11:42:54;15.40;;;11.97;;
1475;SDS011;730;48.870;12.542;2024-02-28T11:45:20;14.93;;;12.37;;
1475;SDS011;730;48.870;12.542;2024-02-28T11:47:47;13.60;;;11.60;;
1475;SDS011;730;48.870;12.542;2024-02-28T11:50:13;17.00;;;12.60;;
1475;SDS011;730;48.870;12.542;2024-02-28T11:52:44;18.87;;;12.10;;
1475;SDS011;730;48.870;12.542;2024-02-28T11:55:11;13.10;;;11.00;;
1475;SDS011;730;48.870;12.542;2024-02-28T11:57:37;14.57;;;12.60;;
1475;SDS011;730;48.870;12.542;2024-02-28T12:00:03;14.17;;;11.63;;
1475;SDS011;730;48.870;12.542;2024-02-28T12:02:31;14.07;;;11.30;;
1475;SDS011;730;48.870;12.542;2024-02-28T12:05:01;15.27;;;11.57;;
1475;SDS011;730;48.870;12.542;2024-02-28T12:07:30;16.13;;;13.63;;
1475;SDS011;730;48.870;12.542;2024-02-28T12:09:57;16.40;;;13.60;;
1475;SDS011;730;48.870;12.542;2024-02-28T12:12:33;16.17;;;12.83;;
1475;SDS011;730;48.870;12.542;2024-02-28T12:15:00;16.63;;;12.63;;
1475;SDS011;730;48.870;12.542;2024-02-28T12:17:26;14.53;;;12.07;;
1475;SDS011;730;48.870;12.542;2024-02-28T12:19:52;15.73;;;11.97;;
1475;SDS011;730;48.870;12.542;2024-02-28T12:22:19;14.33;;;12.73;;
1475;SDS011;730;48.870;12.542;2024-02-28T12:24:45;18.23;;;13.97;;
1475;SDS011;730;48.870;12.542;2024-02-28T12:27:11;15.97;;;12.27;;
1475;SDS011;730;48.870;12.542;2024-02-28T12:29:37;13.97;;;12.57;;
1475;SDS011;730;48.870;12.542;2024-02-28T12:32:03;15.37;;;11.80;;
1475;SDS011;730;48.870;12.542;2024-02-28T12:34:29;13.33;;;11.67;;
1475;SDS011;730;48.870;12.542;2024-02-28T12:36:55;12.30;;;10.80;;
1475;SDS011;730;48.870;12.542;2024-02-28T12:39:22;13.80;;;11.50;;
1475;SDS011;730;48.870;12.542;2024-02-28T12:41:48;14.73;;;11.30;;
1475;SDS011;730;48.870;12.542;2024-02-28T12:44:14;15.50;;;11.73;;
1475;SDS011;730;48.870;12.542;2024-02-28T12:46:40;11.43;;;9.90;;
1475;SDS011;730;48.870;12.542;2024-02-28T12:49:06;16.53;;;11.60;;
1475;SDS011;730;48.870;12.542;2024-02-28T12:54:02;11.73;;;10.23;;
1475;SDS011;730;48.870;12.542;2024-02-28T12:56:28;16.20;;;12.73;;
1475;SDS011;730;48.870;12.542;2024-02-28T12:58:54;14.60;;;13.03;;
1475;SDS011;730;48.870;12.542;2024-02-28T13:01:21;17.87;;;13.40;;
1475;SDS011;730;48.870;12.542;2024-02-28T13:03:47;13.20;;;11.80;;
1475;SDS011;730;48.870;12.542;2024-02-28T13:06:14;14.63;;;13.17;;
1475;SDS011;730;48.870;12.542;2024-02-28T13:08:40;14.47;;;11.50;;
1475;SDS011;730;48.870;12.542;2024-02-28T13:11:06;15.17;;;12.60;;
1475;SDS011;730;48.870;12.542;2024-02-28T13:13:33;16.90;;;14.47;;
1475;SDS011;730;48.870;12.542;2024-02-28T13:15:59;16.47;;;12.83;;
1475;SDS011;730;48.870;12.542;2024-02-28T13:18:25;13.67;;;11.57;;
1475;SDS011;730;48.870;12.542;2024-02-28T13:20:51;15.33;;;12.50;;
1475;SDS011;730;48.870;12.542;2024-02-28T13:23:17;14.33;;;12.13;;
1475;SDS011;730;48.870;12.542;2024-02-28T13:25:47;11.73;;;10.47;;
1475;SDS011;730;48.870;12.542;2024-02-28T13:28:14;13.70;;;11.63;;
1475;SDS011;730;48.870;12.542;2024-02-28T13:30:40;15.37;;;13.30;;
1475;SDS011;730;48.870;12.542;2024-02-28T13:33:06;16.37;;;11.60;;
1475;SDS011;730;48.870;12.542;2024-02-28T13:35:32;13.93;;;11.80;;
1475;SDS011;730;48.870;12.542;2024-02-28T13:37:58;15.73;;;11.70;;
1475;SDS011;730;48.870;12.542;2024-02-28T13:40:28;13.50;;;11.33;;
1475;SDS011;730;48.870;12.542;2024-02-28T13:42:54;14.40;;;11.20;;
1475;SDS011;730;48.870;12.542;2024-02-28T13:45:21;14.20;;;11.90;;
1475;SDS011;730;48.870;12.542;2024-02-28T13:47:47;14.23;;;12.17;;
1475;SDS011;730;48.870;12.542;2024-02-28T13:50:13;14.33;;;11.90;;
1475;SDS011;730;48.870;12.542;2024-02-28T13:52:39;13.70;;;11.50;;
1475;SDS011;730;48.870;12.542;2024-02-28T13:55:06;15.87;;;11.90;;
1475;SDS011;730;48.870;12.542;2024-02-28T13:57:33;14.70;;;11.10;;
1475;SDS011;730;48.870;12.542;2024-02-28T13:59:59;13.87;;;12.30;;
1475;SDS011;730;48.870;12.542;2024-02-28T14:02:25;14.67;;;12.20;;
1475;SDS011;730;48.870;12.542;2024-02-28T14:04:52;17.20;;;12.80;;
1475;SDS011;730;48.870;12.542;2024-02-28T14:07:19;21.40;;;16.27;;
1475;SDS011;730;48.870;12.542;2024-02-28T14:09:45;18.70;;;13.10;;
1475;SDS011;730;48.870;12.542;2024-02-28T14:12:11;14.70;;;12.47;;
1475;SDS011;730;48.870;12.542;2024-02-28T14:14:37;14.17;;;11.90;;
1475;SDS011;730;48.870;12.542;2024-02-28T14:17:05;17.73;;;12.87;;
1475;SDS011;730;48.870;12.542;2024-02-28T14:19:31;14.60;;;12.50;;
1475;SDS011;730;48.870;12.542;2024-02-28T14:21:57;16.80;;;12.47;;
1475;SDS011;730;48.870;12.542;2024-02-28T14:24:23;14.07;;;11.50;;
1475;SDS011;730;48.870;12.542;2024-02-28T14:26:49;13.83;;;10.57;;
1475;SDS011;730;48.870;12.542;2024-02-28T14:29:15;13.30;;;11.03;;
1475;SDS011;730;48.870;12.542;2024-02-28T14:31:41;13.97;;;11.57;;
1475;SDS011;730;48.870;12.542;2024-02-28T14:34:07;12.43;;;11.13;;
1475;SDS011;730;48.870;12.542;2024-02-28T14:36:34;13.00;;;11.60;;
1475;SDS011;730;48.870;12.542;2024-02-28T14:39:00;15.93;;;12.10;;
1475;SDS011;730;48.870;12.542;2024-02-28T14:41:26;15.53;;;12.47;;
1475;SDS011;730;48.870;12.542;2024-02-28T14:43:52;12.00;;;10.57;;
1475;SDS011;730;48.870;12.542;2024-02-28T14:46:19;14.40;;;12.47;;
1475;SDS011;730;48.870;12.542;2024-02-28T14:48:47;14.37;;;11.30;;
1475;SDS011;730;48.870;12.542;2024-02-28T14:51:20;12.70;;;11.40;;
1475;SDS011;730;48.870;12.542;2024-02-28T14:53:46;16.40;;;12.13;;
1475;SDS011;730;48.870;12.542;2024-02-28T14:56:13;16.90;;;11.53;;